Time;durP1;ratioP1;P1;durP2;ratioP2;P2;SDS_P1;SDS_P2;PMS_P1;PMS_P2;Temp;Humidity;BMP_temperature;BMP_pressure;BME280_temperature;BME280_humidity;BME280_pressure;Samples;Min_cycle;Max_cycle;Signal;HPM_P1;HPM_P2
2021/12/10 00:01:52;;;;;;;12.57;6.78;;;4.10;78.80;;;;;;5033424;28;20029;-20
2021/12/10 00:04:21;;;;;;;8.02;3.88;;;4.10;78.70;;;;;;5033291;28;20022;-20
2021/12/10 00:06:51;;;;;;;12.65;6.57;;;4.20;78.70;;;;;;5033286;28;20021;-21
2021/12/10 00:09:22;;;;;;;9.63;5.40;;;4.20;78.70;;;;;;5033132;28;20104;-19
2021/12/10 00:11:53;;;;;;;8.30;4.40;;;4.20;78.60;;;;;;5033608;28;20053;-20
2021/12/10 00:14:25;;;;;;;7.05;3.65;;;4.20;78.60;;;;;;5032940;28;20029;-20
2021/12/10 00:16:51;;;;;;;22.60;12.70;;;4.20;78.50;;;;;;5032923;28;20385;-21
2021/12/10 00:19:33;;;;;;;23.85;13.50;;;4.20;78.60;;;;;;5033354;28;20029;-21
2021/12/10 00:22:06;;;;;;;12.23;7.38;;;4.30;78.80;;;;;;5033038;28;20022;-20
2021/12/10 00:24:33;;;;;;;16.83;9.50;;;4.30;78.60;;;;;;5033107;28;20057;-20
2021/12/10 00:27:04;;;;;;;15.95;8.57;;;4.30;78.60;;;;;;5031692;28;20386;-20
2021/12/10 00:29:32;;;;;;;13.45;7.50;;;4.30;78.50;;;;;;5032926;28;20036;-20
2021/12/10 00:32:05;;;;;;;10.70;7.05;;;4.30;78.50;;;;;;5035292;28;20486;-20
2021/12/10 00:34:43;;;;;;;15.30;8.35;;;4.30;78.40;;;;;;5036554;28;20142;-20
2021/12/10 00:37:12;;;;;;;15.13;7.65;;;4.30;78.30;;;;;;5037446;28;20529;-21
2021/12/10 00:39:43;;;;;;;13.00;6.70;;;4.30;78.50;;;;;;5035562;28;20018;-21
2021/12/10 00:42:13;;;;;;;10.60;5.68;;;4.30;78.40;;;;;;5037137;28;20474;-20
2021/12/10 00:44:40;;;;;;;9.20;5.45;;;4.30;78.40;;;;;;5036646;28;20018;-20
2021/12/10 00:47:09;;;;;;;10.73;5.32;;;4.30;78.40;;;;;;5036582;28;20026;-21
2021/12/10 00:49:36;;;;;;;9.95;4.93;;;4.30;78.40;;;;;;5036586;28;20025;-20
2021/12/10 00:52:05;;;;;;;10.65;5.32;;;4.40;78.40;;;;;;5036799;28;20022;-20
2021/12/10 00:54:32;;;;;;;11.48;6.03;;;4.40;78.40;;;;;;5036350;28;20032;-20
2021/12/10 00:56:58;;;;;;;8.57;4.43;;;4.40;78.40;;;;;;5035210;28;20374;-20
2021/12/10 00:59:24;;;;;;;8.05;4.00;;;4.40;78.30;;;;;;5036421;28;20515;-20
2021/12/10 01:01:52;;;;;;;10.70;5.82;;;4.40;78.20;;;;;;5036341;28;20512;-19
2021/12/10 01:04:26;;;;;;;8.70;4.90;;;4.40;78.20;;;;;;5036212;28;20501;-20
2021/12/10 01:06:55;;;;;;;12.40;7.30;;;4.50;78.10;;;;;;5036409;28;20025;-20
2021/12/10 01:09:26;;;;;;;15.00;7.15;;;4.50;78.00;;;;;;5036290;28;20033;-20
2021/12/10 01:12:04;;;;;;;12.30;6.50;;;4.50;77.90;;;;;;5036330;28;20385;-20
2021/12/10 01:15:18;;;;;;;19.35;10.02;;;4.50;78.00;;;;;;5035967;28;20031;-19
2021/12/10 01:26:08;;;;;;;8.30;4.88;;;4.50;78.10;;;;;;5036339;28;20056;-20
2021/12/10 01:28:37;;;;;;;7.28;4.10;;;4.60;78.00;;;;;;5036068;28;20053;-21
2021/12/10 01:31:04;;;;;;;7.57;4.53;;;4.60;77.90;;;;;;5035745;28;20111;-21
2021/12/10 01:33:30;;;;;;;6.50;3.85;;;4.60;77.80;;;;;;5036480;28;20116;-20
2021/12/10 01:35:57;;;;;;;14.55;7.68;;;4.60;77.80;;;;;;5035859;28;20100;-21
2021/12/10 01:38:24;;;;;;;9.13;4.75;;;4.60;77.80;;;;;;5035503;28;20041;-20
2021/12/10 01:40:56;;;;;;;16.33;9.00;;;4.60;77.90;;;;;;5035684;28;20040;-21
2021/12/10 01:43:24;;;;;;;13.02;7.70;;;4.60;77.80;;;;;;5034951;28;20053;-22
2021/12/10 01:45:54;;;;;;;10.18;5.70;;;4.60;77.70;;;;;;5035498;28;20029;-21
2021/12/10 01:48:31;;;;;;;13.95;7.60;;;4.60;77.70;;;;;;5035651;28;20036;-21
2021/12/10 01:50:59;;;;;;;11.32;7.53;;;4.60;77.70;;;;;;5036115;28;20071;-21
2021/12/10 01:53:28;;;;;;;22.05;12.75;;;4.50;77.80;;;;;;5036075;28;20026;-20
2021/12/10 01:55:58;;;;;;;17.52;10.43;;;4.60;77.90;;;;;;5035257;28;20038;-22
2021/12/10 01:58:27;;;;;;;17.30;8.90;;;4.50;78.00;;;;;;5033955;28;20044;-21
2021/12/10 02:01:01;;;;;;;14.63;8.38;;;4.60;78.00;;;;;;5035242;28;20068;-21
2021/12/10 02:03:27;;;;;;;19.25;10.80;;;4.60;77.90;;;;;;5035329;28;20440;-20
2021/12/10 02:05:53;;;;;;;19.05;10.40;;;4.60;78.20;;;;;;5035361;28;20478;-20
2021/12/10 02:08:19;;;;;;;28.48;16.60;;;4.50;78.00;;;;;;5033847;28;20481;-20
2021/12/10 02:10:47;;;;;;;19.80;11.35;;;4.50;78.10;;;;;;5035730;28;20390;-20
2021/12/10 02:13:14;;;;;;;20.80;12.02;;;4.50;78.50;;;;;;5035099;28;20036;-20
2021/12/10 02:15:41;;;;;;;12.57;6.63;;;4.50;78.60;;;;;;5034950;28;20025;-20
2021/12/10 02:18:09;;;;;;;13.48;7.00;;;4.50;78.30;;;;;;5034981;28;20030;-22
2021/12/10 02:21:14;;;;;;;7.93;5.25;;;4.40;78.20;;;;;;5034786;28;20101;-19
2021/12/10 02:23:45;;;;;;;18.88;9.88;;;4.50;78.10;;;;;;5034224;28;20037;-20
2021/12/10 02:26:13;;;;;;;19.42;10.25;;;4.50;78.20;;;;;;5033719;28;20604;-19
2021/12/10 02:28:40;;;;;;;28.00;15.77;;;4.50;78.40;;;;;;5033581;28;20033;-19
2021/12/10 02:31:08;;;;;;;21.65;12.77;;;4.50;78.60;;;;;;5034934;28;20029;-20
2021/12/10 02:33:35;;;;;;;15.75;8.57;;;4.50;78.40;;;;;;5034287;28;20045;-20
2021/12/10 02:36:02;;;;;;;10.77;5.75;;;4.40;78.80;;;;;;5035025;28;20048;-18
2021/12/10 02:38:28;;;;;;;10.15;5.72;;;4.40;78.40;;;;;;5034638;28;20055;-21
2021/12/10 02:40:55;;;;;;;9.50;4.97;;;4.40;78.40;;;;;;5034589;28;20564;-19
2021/12/10 02:43:22;;;;;;;18.85;11.50;;;4.40;78.20;;;;;;5034565;28;20385;-20
2021/12/10 02:45:53;;;;;;;25.95;15.70;;;4.40;78.50;;;;;;5034548;28;20060;-20
2021/12/10 02:48:21;;;;;;;15.10;8.10;;;4.30;78.50;;;;;;5034645;28;20389;-22
2021/12/10 02:50:48;;;;;;;16.25;8.85;;;4.30;78.40;;;;;;5034995;28;20025;-20
2021/12/10 02:53:16;;;;;;;11.90;6.40;;;4.20;78.40;;;;;;5033673;28;20064;-20
2021/12/10 02:55:43;;;;;;;11.73;6.63;;;4.20;78.30;;;;;;5034156;28;20025;-20
2021/12/10 02:58:12;;;;;;;10.85;6.75;;;4.10;78.30;;;;;;5034467;28;20040;-20
2021/12/10 03:01:07;;;;;;;9.63;5.38;;;4.10;78.30;;;;;;5034408;28;20105;-21
2021/12/10 03:03:36;;;;;;;8.35;4.40;;;4.10;78.30;;;;;;5034033;28;20045;-20
2021/12/10 03:06:09;;;;;;;8.20;4.55;;;4.00;78.30;;;;;;5034082;28;20061;-22
2021/12/10 03:08:39;;;;;;;7.22;3.95;;;4.00;78.20;;;;;;5033920;28;20040;-22
2021/12/10 03:11:05;;;;;;;7.38;4.13;;;3.90;78.20;;;;;;5034027;28;20030;-18
2021/12/10 03:13:32;;;;;;;6.60;3.83;;;3.90;78.30;;;;;;5034266;28;20117;-21
2021/12/10 03:15:58;;;;;;;7.00;4.07;;;3.90;78.20;;;;;;5033795;28;20469;-18
2021/12/10 03:18:24;;;;;;;8.13;4.97;;;3.80;78.20;;;;;;5033879;28;20060;-18
2021/12/10 03:20:51;;;;;;;6.75;3.78;;;3.70;78.30;;;;;;5034090;28;20028;-18
2021/12/10 03:23:18;;;;;;;8.20;4.82;;;3.70;78.40;;;;;;5034282;28;20037;-20
2021/12/10 03:25:44;;;;;;;8.60;4.75;;;3.60;78.40;;;;;;5034049;28;20030;-20
2021/12/10 03:28:11;;;;;;;9.25;5.68;;;3.60;78.50;;;;;;5033768;28;20536;-20
2021/12/10 03:30:42;;;;;;;13.27;7.85;;;3.60;78.50;;;;;;5033365;28;20029;-21
2021/12/10 03:33:09;;;;;;;11.35;5.93;;;3.50;78.60;;;;;;5033985;28;20079;-20
2021/12/10 03:35:41;;;;;;;9.38;4.60;;;3.50;78.70;;;;;;5033460;28;20142;-20
2021/12/10 03:38:11;;;;;;;9.90;5.82;;;3.50;78.60;;;;;;5033520;28;20049;-20
2021/12/10 03:40:38;;;;;;;8.93;5.30;;;3.40;78.60;;;;;;5033908;28;20116;-20
2021/12/10 03:43:05;;;;;;;11.82;6.93;;;3.40;78.50;;;;;;5033910;28;20413;-20
2021/12/10 03:45:37;;;;;;;9.43;5.68;;;3.30;78.60;;;;;;5033275;28;20516;-22
2021/12/10 03:48:11;;;;;;;10.43;6.60;;;3.30;78.60;;;;;;5033437;28;20030;-21
2021/12/10 03:50:39;;;;;;;8.70;4.60;;;3.30;78.60;;;;;;5033996;28;20504;-20
2021/12/10 03:53:06;;;;;;;8.55;4.45;;;3.20;78.60;;;;;;5033303;28;20040;-21
2021/12/10 03:55:32;;;;;;;7.88;4.50;;;3.20;78.60;;;;;;5033294;28;20104;-21
2021/12/10 03:57:59;;;;;;;10.23;5.95;;;3.20;78.70;;;;;;5033268;28;20112;-20
2021/12/10 04:00:29;;;;;;;6.97;4.10;;;3.20;78.90;;;;;;5033060;28;20033;-20
2021/12/10 04:02:55;;;;;;;6.72;4.40;;;3.10;78.70;;;;;;5034020;28;20030;-21
2021/12/10 04:05:23;;;;;;;8.07;4.47;;;3.10;78.70;;;;;;5032870;28;20036;-21
2021/12/10 04:07:50;;;;;;;7.60;4.97;;;3.10;78.60;;;;;;5033551;28;20462;-22
2021/12/10 04:10:17;;;;;;;9.00;5.10;;;3.10;78.60;;;;;;5032900;28;20036;-19
2021/12/10 04:12:44;;;;;;;12.48;7.78;;;3.00;78.50;;;;;;5031846;28;20393;-21
2021/12/10 04:15:11;;;;;;;7.38;4.22;;;2.90;78.50;;;;;;5033534;28;20389;-22
2021/12/10 04:17:38;;;;;;;8.50;4.72;;;2.90;78.50;;;;;;5032997;28;20033;-22
2021/12/10 04:20:07;;;;;;;6.82;3.70;;;2.90;78.50;;;;;;5033431;28;20030;-21
2021/12/10 04:22:34;;;;;;;6.35;3.40;;;2.80;78.60;;;;;;5032782;28;20022;-21
2021/12/10 04:25:03;;;;;;;5.82;3.53;;;2.80;78.60;;;;;;5032981;28;20041;-21
2021/12/10 04:27:29;;;;;;;6.28;3.85;;;2.70;78.70;;;;;;5032911;28;20385;-22
2021/12/10 04:29:58;;;;;;;6.50;3.42;;;2.70;78.70;;;;;;5033010;28;20029;-20
2021/12/10 04:32:25;;;;;;;4.95;2.88;;;2.60;78.70;;;;;;5032630;28;20512;-20
2021/12/10 04:34:53;;;;;;;5.85;3.45;;;2.60;78.70;;;;;;5032766;28;20049;-21
2021/12/10 04:37:20;;;;;;;5.32;3.40;;;2.50;78.70;;;;;;5031600;28;20042;-21
2021/12/10 04:39:48;;;;;;;4.43;2.90;;;2.50;78.80;;;;;;5033107;28;20025;-19
2021/12/10 04:42:18;;;;;;;9.52;5.30;;;2.50;78.70;;;;;;5032612;28;20032;-21
2021/12/10 04:44:44;;;;;;;6.88;3.30;;;2.50;78.70;;;;;;5033194;28;20021;-21
2021/12/10 04:47:11;;;;;;;5.85;3.28;;;2.40;78.70;;;;;;5032776;28;20092;-21
2021/12/10 04:49:37;;;;;;;5.90;3.83;;;2.40;78.70;;;;;;5032996;28;20039;-21
2021/12/10 04:52:06;;;;;;;5.75;3.78;;;2.40;78.70;;;;;;5033044;28;20056;-20
2021/12/10 04:54:34;;;;;;;6.93;3.47;;;2.30;78.70;;;;;;5032623;28;20032;-22
2021/12/10 04:57:01;;;;;;;5.43;3.45;;;2.20;78.70;;;;;;5032625;28;20115;-20
2021/12/10 04:59:31;;;;;;;5.10;3.47;;;2.20;78.80;;;;;;5032947;28;20115;-20
2021/12/10 05:02:00;;;;;;;7.30;3.47;;;2.20;78.80;;;;;;5032559;28;20041;-18
2021/12/10 05:04:28;;;;;;;5.43;3.53;;;2.20;78.80;;;;;;5032714;28;20104;-20
2021/12/10 05:06:54;;;;;;;7.32;4.50;;;2.20;78.80;;;;;;5032901;28;20025;-19
2021/12/10 05:09:21;;;;;;;5.25;3.10;;;2.20;78.90;;;;;;5032564;28;20021;-21
2021/12/10 05:11:50;;;;;;;7.30;4.78;;;2.10;78.80;;;;;;5032854;28;20108;-20
2021/12/10 05:14:17;;;;;;;6.05;3.45;;;2.10;78.80;;;;;;5032644;28;20088;-20
2021/12/10 05:16:45;;;;;;;5.50;3.42;;;2.10;78.80;;;;;;5032870;28;20482;-19
2021/12/10 05:19:20;;;;;;;8.13;5.28;;;2.10;78.80;;;;;;5036423;28;20043;-20
2021/12/10 05:21:47;;;;;;;8.52;5.45;;;2.10;78.80;;;;;;5036467;28;20103;-20
2021/12/10 05:24:14;;;;;;;5.60;3.75;;;2.00;78.80;;;;;;5035977;28;20481;-21
2021/12/10 05:26:40;;;;;;;8.77;5.38;;;2.00;78.90;;;;;;5036249;28;20485;-20
2021/12/10 05:29:08;;;;;;;7.88;4.60;;;2.00;78.90;;;;;;5036187;28;20025;-20
2021/12/10 05:31:39;;;;;;;8.02;4.55;;;2.00;78.90;;;;;;5035735;28;20033;-20
2021/12/10 05:34:05;;;;;;;7.10;3.75;;;2.00;79.00;;;;;;5035695;28;20060;-20
2021/12/10 05:36:32;;;;;;;9.80;5.38;;;2.00;79.00;;;;;;5035880;28;20037;-20
2021/12/10 05:38:58;;;;;;;7.15;4.30;;;2.00;78.90;;;;;;5035763;28;20026;-21
2021/12/10 05:41:24;;;;;;;8.45;3.90;;;2.10;78.90;;;;;;5035998;28;20029;-21
2021/12/10 05:43:51;;;;;;;9.25;4.78;;;2.00;78.80;;;;;;5034414;28;20496;-21
2021/12/10 05:46:18;;;;;;;7.45;4.22;;;2.10;78.80;;;;;;5035366;28;20441;-21
2021/12/10 05:48:45;;;;;;;7.18;4.50;;;2.10;78.70;;;;;;5035915;28;20066;-20
2021/12/10 05:51:12;;;;;;;6.53;3.92;;;2.00;78.70;;;;;;5036362;28;20041;-21
2021/12/10 05:53:38;;;;;;;5.90;3.03;;;2.00;78.60;;;;;;5036088;28;20045;-20
2021/12/10 05:56:05;;;;;;;7.55;4.53;;;2.00;78.60;;;;;;5035750;28;20076;-21
2021/12/10 05:58:32;;;;;;;5.82;3.47;;;1.90;78.60;;;;;;5035142;28;20033;-19
2021/12/10 06:01:03;;;;;;;6.50;3.67;;;1.90;78.60;;;;;;5035230;28;20025;-20
2021/12/10 06:03:34;;;;;;;6.10;3.35;;;1.90;78.60;;;;;;5035373;28;20112;-20
2021/12/10 06:06:02;;;;;;;8.38;5.55;;;1.90;78.60;;;;;;5034119;28;20029;-20
2021/12/10 06:08:28;;;;;;;4.53;2.85;;;1.90;78.70;;;;;;5033789;28;20021;-20
2021/12/10 06:10:57;;;;;;;5.82;3.28;;;1.80;78.70;;;;;;5036053;28;20033;-20
2021/12/10 06:13:23;;;;;;;5.88;3.42;;;1.80;78.70;;;;;;5035128;28;20029;-21
2021/12/10 06:15:49;;;;;;;6.95;4.38;;;1.80;78.70;;;;;;5035296;28;20029;-20
2021/12/10 06:18:15;;;;;;;7.88;4.88;;;1.80;78.70;;;;;;5034991;28;20389;-20
2021/12/10 06:20:47;;;;;;;6.45;3.67;;;1.70;78.60;;;;;;5035293;28;20032;-19
2021/12/10 06:23:13;;;;;;;5.75;3.10;;;1.70;78.60;;;;;;5035037;28;20030;-20
2021/12/10 06:25:40;;;;;;;7.95;5.20;;;1.60;78.60;;;;;;5035118;28;20187;-21
2021/12/10 06:28:07;;;;;;;6.07;3.78;;;1.70;78.60;;;;;;5034926;28;20079;-20
2021/12/10 06:30:38;;;;;;;5.72;3.17;;;1.60;78.60;;;;;;5034160;28;20489;-20
2021/12/10 06:33:08;;;;;;;11.85;7.07;;;1.60;78.70;;;;;;5034716;28;20029;-20
2021/12/10 06:35:36;;;;;;;7.57;4.82;;;1.50;78.70;;;;;;5034544;28;20497;-21
2021/12/10 06:38:03;;;;;;;6.50;4.40;;;1.50;78.90;;;;;;5034945;28;20088;-20
2021/12/10 06:40:32;;;;;;;6.72;4.20;;;1.50;78.90;;;;;;5034452;28;20101;-20
2021/12/10 06:42:58;;;;;;;12.35;7.40;;;1.50;79.00;;;;;;5034566;28;20029;-20
2021/12/10 06:45:28;;;;;;;13.77;8.93;;;1.50;79.00;;;;;;5034838;28;20025;-21
2021/12/10 06:48:01;;;;;;;7.40;4.18;;;1.50;79.00;;;;;;5034479;28;20025;-21
2021/12/10 06:50:31;;;;;;;7.07;3.90;;;1.50;79.00;;;;;;5034530;28;20025;-21
2021/12/10 06:52:57;;;;;;;6.63;3.72;;;1.60;78.90;;;;;;5034432;28;20037;-21
2021/12/10 06:55:25;;;;;;;6.15;4.03;;;1.60;78.90;;;;;;5034337;28;20434;-21
2021/12/10 06:57:51;;;;;;;6.70;4.00;;;1.60;78.90;;;;;;5034536;28;20103;-21
2021/12/10 07:00:31;;;;;;;6.25;4.05;;;1.60;78.80;;;;;;5034127;28;20037;-20
2021/12/10 07:02:57;;;;;;;9.77;5.55;;;1.60;78.80;;;;;;5034126;28;20036;-21
2021/12/10 07:05:24;;;;;;;8.45;4.50;;;1.60;78.70;;;;;;5034126;28;20032;-21
2021/12/10 07:07:50;;;;;;;10.80;6.85;;;1.60;78.70;;;;;;5034102;28;20033;-21
2021/12/10 07:10:18;;;;;;;10.93;6.28;;;1.60;78.70;;;;;;5033842;28;20541;-21
2021/12/10 07:12:45;;;;;;;16.33;8.57;;;1.50;78.70;;;;;;5034275;28;20033;-21
2021/12/10 07:15:15;;;;;;;5.85;3.78;;;1.50;78.70;;;;;;5034287;28;20025;-20
2021/12/10 07:17:46;;;;;;;7.43;4.28;;;1.50;78.70;;;;;;5032664;28;20397;-21
2021/12/10 07:20:15;;;;;;;6.40;3.47;;;1.60;78.70;;;;;;5033830;28;20530;-20
2021/12/10 07:22:41;;;;;;;6.15;3.75;;;1.60;78.80;;;;;;5033888;28;20041;-20
2021/12/10 07:25:09;;;;;;;9.80;6.15;;;1.60;78.80;;;;;;5034121;28;20034;-21
2021/12/10 07:27:35;;;;;;;14.60;9.45;;;1.70;79.00;;;;;;5034058;28;20465;-21
2021/12/10 07:30:03;;;;;;;10.02;6.20;;;1.70;79.10;;;;;;5033774;28;20033;-21
2021/12/10 07:32:29;;;;;;;18.42;10.93;;;1.80;79.00;;;;;;5033270;28;20116;-21
2021/12/10 07:34:55;;;;;;;9.32;5.72;;;1.90;79.30;;;;;;5033638;28;20053;-21
2021/12/10 07:37:21;;;;;;;9.82;5.68;;;1.90;78.90;;;;;;5033438;28;20033;-21
2021/12/10 07:39:47;;;;;;;12.68;7.18;;;1.90;78.70;;;;;;5033509;28;20551;-21
2021/12/10 07:42:14;;;;;;;9.65;4.68;;;2.00;78.60;;;;;;5032544;28;20059;-21
2021/12/10 07:44:40;;;;;;;9.32;4.53;;;2.00;78.50;;;;;;5033478;28;20032;-21
2021/12/10 07:47:11;;;;;;;22.02;13.43;;;2.10;78.50;;;;;;5033313;28;20025;-21
2021/12/10 07:49:39;;;;;;;11.93;7.35;;;2.20;78.50;;;;;;5033425;28;20404;-21
2021/12/10 07:52:14;;;;;;;11.32;5.95;;;2.20;78.60;;;;;;5033313;28;20385;-21
2021/12/10 07:54:43;;;;;;;11.70;6.65;;;2.30;78.50;;;;;;5034075;28;20105;-21
2021/12/10 07:57:09;;;;;;;17.77;9.52;;;2.40;78.60;;;;;;5033398;28;20120;-20
2021/12/10 07:59:35;;;;;;;15.43;9.50;;;2.50;78.80;;;;;;5033575;28;20021;-20
2021/12/10 08:02:03;;;;;;;16.52;9.07;;;2.50;78.80;;;;;;5032258;28;20025;-21
2021/12/10 08:04:29;;;;;;;17.98;9.98;;;2.60;78.80;;;;;;5034093;28;20030;-20
2021/12/10 08:06:54;;;;;;;17.73;10.85;;;2.60;79.40;;;;;;5033463;28;20088;-23
2021/12/10 08:09:20;;;;;;;21.23;12.18;;;2.70;79.00;;;;;;5033272;28;20447;-20
2021/12/10 08:11:46;;;;;;;19.17;11.48;;;2.80;79.30;;;;;;5033420;28;20419;-20
2021/12/10 08:14:13;;;;;;;20.45;11.20;;;2.80;79.40;;;;;;5033052;28;20068;-22
2021/12/10 08:16:39;;;;;;;13.05;8.20;;;2.80;79.50;;;;;;5033294;28;20025;-22
2021/12/10 08:19:06;;;;;;;12.75;6.95;;;2.80;79.00;;;;;;5033020;28;20040;-21
2021/12/10 08:21:33;;;;;;;21.30;11.35;;;2.90;78.70;;;;;;5033309;28;20025;-21
2021/12/10 08:24:00;;;;;;;13.35;6.95;;;2.90;79.20;;;;;;5033291;28;20084;-21
2021/12/10 08:26:26;;;;;;;12.65;7.95;;;2.90;78.70;;;;;;5032762;28;20550;-21
2021/12/10 08:28:53;;;;;;;20.40;11.80;;;3.00;78.20;;;;;;5033304;28;20413;-21
2021/12/10 08:31:19;;;;;;;15.73;8.68;;;3.10;78.30;;;;;;5032783;28;20099;-20
2021/12/10 08:33:48;;;;;;;19.10;11.63;;;3.10;78.80;;;;;;5032970;28;20029;-21
2021/12/10 08:36:17;;;;;;;17.17;8.30;;;3.20;79.40;;;;;;5032732;28;20038;-21
2021/12/10 08:38:45;;;;;;;18.90;11.35;;;3.20;79.10;;;;;;5032750;28;20029;-20
2021/12/10 08:41:18;;;;;;;20.60;12.23;;;3.30;79.10;;;;;;5033964;28;20034;-21
2021/12/10 08:43:45;;;;;;;19.75;12.02;;;3.30;78.90;;;;;;5032905;28;20481;-20
2021/12/10 08:46:12;;;;;;;29.90;16.63;;;3.40;78.70;;;;;;5033012;28;20063;-21
2021/12/10 08:48:39;;;;;;;16.15;9.25;;;3.40;79.20;;;;;;5033027;28;20091;-22
2021/12/10 08:51:22;;;;;;;14.02;6.97;;;3.40;79.00;;;;;;5033060;28;20105;-21
2021/12/10 08:53:49;;;;;;;13.20;7.30;;;3.50;78.70;;;;;;5036335;28;20052;-20
2021/12/10 08:56:16;;;;;;;9.85;6.18;;;3.60;78.70;;;;;;5036330;28;20470;-22
2021/12/10 08:58:42;;;;;;;19.75;12.15;;;3.60;78.50;;;;;;5036757;28;20033;-21
2021/12/10 09:01:16;;;;;;;9.23;5.32;;;3.70;78.50;;;;;;5036716;28;20021;-20
2021/12/10 09:03:45;;;;;;;7.40;4.10;;;3.80;78.30;;;;;;5036798;28;20025;-20
2021/12/10 09:06:13;;;;;;;9.00;5.43;;;3.90;78.20;;;;;;5036345;28;20075;-21
2021/12/10 09:08:41;;;;;;;8.50;5.28;;;4.10;78.20;;;;;;5036305;28;20029;-21
2021/12/10 09:11:10;;;;;;;8.57;4.63;;;4.30;78.30;;;;;;5036577;28;20030;-20
2021/12/10 09:13:36;;;;;;;14.43;9.10;;;4.40;78.10;;;;;;5036416;28;20033;-20
2021/12/10 09:16:07;;;;;;;9.63;5.80;;;4.50;78.50;;;;;;5036480;28;20075;-20
2021/12/10 09:18:38;;;;;;;18.67;10.85;;;4.70;78.00;;;;;;5035966;28;20044;-21
2021/12/10 09:21:07;;;;;;;10.93;6.60;;;4.80;78.10;;;;;;5036542;28;20018;-20
2021/12/10 09:23:33;;;;;;;10.57;6.00;;;4.90;77.80;;;;;;5036095;28;20044;-21
2021/12/10 09:26:03;;;;;;;8.95;5.50;;;5.00;78.00;;;;;;5036026;28;20075;-21
2021/12/10 09:28:30;;;;;;;9.23;5.40;;;5.10;77.90;;;;;;5034552;28;20028;-20
2021/12/10 09:30:59;;;;;;;10.68;6.30;;;5.20;78.10;;;;;;5036507;28;20022;-20
2021/12/10 09:33:26;;;;;;;10.60;4.88;;;5.40;77.90;;;;;;5036230;28;20053;-20
2021/12/10 09:35:53;;;;;;;8.38;5.15;;;5.50;77.20;;;;;;5035670;28;20132;-21
2021/12/10 09:38:21;;;;;;;8.82;4.35;;;5.70;77.20;;;;;;5035792;28;20104;-22
2021/12/10 09:40:52;;;;;;;9.85;5.90;;;5.90;77.40;;;;;;5035750;28;20029;-22
2021/12/10 09:43:19;;;;;;;10.10;5.70;;;6.00;77.30;;;;;;5035727;28;20450;-21
2021/12/10 09:45:46;;;;;;;15.57;8.30;;;6.10;77.40;;;;;;5036004;28;20036;-19
2021/12/10 09:48:15;;;;;;;14.13;7.93;;;6.30;77.10;;;;;;5035838;28;20041;-20
2021/12/10 09:50:55;;;;;;;14.30;7.85;;;6.40;77.40;;;;;;5035889;28;20115;-21
2021/12/10 09:53:26;;;;;;;12.90;7.45;;;6.60;76.90;;;;;;5035585;28;20071;-20
2021/12/10 09:55:52;;;;;;;10.20;5.97;;;6.80;76.70;;;;;;5035788;28;20033;-20
2021/12/10 09:58:20;;;;;;;10.73;6.03;;;6.90;76.70;;;;;;5035559;28;20025;-19
2021/12/10 10:00:51;;;;;;;10.02;5.70;;;7.10;76.50;;;;;;5035354;28;20481;-20
2021/12/10 10:03:21;;;;;;;8.90;5.63;;;7.20;76.50;;;;;;5034924;28;20436;-21
2021/12/10 10:05:47;;;;;;;9.73;5.65;;;7.40;75.90;;;;;;5035306;28;20197;-20
2021/12/10 10:08:18;;;;;;;15.05;8.55;;;7.50;74.90;;;;;;5035575;28;20156;-21
2021/12/10 10:10:50;;;;;;;9.82;6.00;;;7.70;75.30;;;;;;5035607;28;20042;-20
2021/12/10 10:13:21;;;;;;;15.23;8.00;;;7.90;74.60;;;;;;5035257;28;20029;-20
2021/12/10 10:15:49;;;;;;;13.80;8.48;;;8.10;75.00;;;;;;5035112;28;20041;-20
2021/12/10 10:18:20;;;;;;;14.77;7.75;;;8.30;74.10;;;;;;5034723;28;20115;-20
2021/12/10 10:20:52;;;;;;;10.65;6.50;;;8.40;72.00;;;;;;5035054;28;20522;-20
2021/12/10 10:23:18;;;;;;;9.55;6.05;;;8.60;73.60;;;;;;5033853;28;20033;-20
2021/12/10 10:25:49;;;;;;;10.18;5.78;;;8.70;73.90;;;;;;5035288;28;20021;-20
2021/12/10 10:28:16;;;;;;;8.63;4.30;;;8.90;72.90;;;;;;5035397;28;20021;-20
2021/12/10 10:30:59;;;;;;;8.27;4.93;;;8.90;73.10;;;;;;5035169;28;20036;-21
2021/12/10 10:33:29;;;;;;;10.00;5.73;;;9.10;73.10;;;;;;5035111;28;20026;-21
2021/12/10 10:35:58;;;;;;;12.02;5.22;;;9.10;71.40;;;;;;5035371;28;20113;-21
2021/12/10 10:38:25;;;;;;;8.23;4.32;;;9.20;69.70;;;;;;5034430;28;20486;-20
2021/12/10 10:40:59;;;;;;;8.52;4.70;;;9.20;70.70;;;;;;5034651;28;20030;-21
2021/12/10 10:43:27;;;;;;;6.30;3.80;;;9.20;70.20;;;;;;5034604;28;20079;-20
2021/12/10 10:45:54;;;;;;;6.47;3.90;;;9.30;69.80;;;;;;5034170;28;20113;-20
2021/12/10 10:48:22;;;;;;;4.45;3.00;;;9.30;69.20;;;;;;5034218;28;20524;-20
2021/12/10 10:50:55;;;;;;;5.88;3.42;;;9.40;70.90;;;;;;5034686;28;20080;-20
2021/12/10 10:53:28;;;;;;;5.13;2.72;;;9.40;71.30;;;;;;5034733;28;20056;-20
2021/12/10 10:56:04;;;;;;;4.57;2.92;;;9.50;71.30;;;;;;5034905;28;20022;-21
2021/12/10 10:58:37;;;;;;;5.82;3.40;;;9.60;71.60;;;;;;5034071;28;20034;-21
2021/12/10 11:01:28;;;;;;;5.65;4.10;;;9.60;71.20;;;;;;5034416;28;20032;-20
2021/12/10 11:04:02;;;;;;;4.50;2.45;;;9.60;69.60;;;;;;5034268;28;20068;-20
2021/12/10 11:06:36;;;;;;;6.70;4.05;;;9.70;70.30;;;;;;5033992;28;20386;-21
2021/12/10 11:09:10;;;;;;;;;;;9.70;70.20;;;;;;5034902;28;20096;-19
2021/12/10 11:11:43;;;;;;;2.97;2.33;;;9.70;65.20;;;;;;5034388;28;19905;-20
2021/12/10 11:14:12;;;;;;;4.07;2.88;;;9.80;69.10;;;;;;5034020;28;20085;-22
2021/12/10 11:16:42;;;;;;;5.22;3.10;;;9.80;68.80;;;;;;5034022;28;20029;-21
2021/12/10 11:19:12;;;;;;;4.40;2.97;;;9.90;69.30;;;;;;5033884;28;20036;-21
2021/12/10 11:21:51;;;;;;;5.63;3.90;;;9.90;68.50;;;;;;5034112;28;20025;-20
2021/12/10 11:24:46;;;;;;;4.38;2.97;;;9.90;69.70;;;;;;5033678;28;20075;-22
2021/12/10 11:27:19;;;;;;;5.00;3.63;;;10.00;68.90;;;;;;5033814;28;20037;-21
2021/12/10 11:29:51;;;;;;;5.65;3.78;;;10.10;68.40;;;;;;5034043;28;20394;-20
2021/12/10 11:32:26;;;;;;;5.43;3.22;;;10.20;67.70;;;;;;5033839;28;20037;-20
2021/12/10 11:35:03;;;;;;;3.83;2.53;;;10.30;66.90;;;;;;5033494;28;20053;-21
2021/12/10 11:37:44;;;;;;;3.58;2.33;;;10.40;68.90;;;;;;5034157;28;20033;-21
2021/12/10 11:40:32;;;;;;;6.32;3.65;;;10.50;69.10;;;;;;5033935;28;20029;-20
2021/12/10 11:43:21;;;;;;;5.22;2.92;;;10.60;65.50;;;;;;5033492;28;20034;-20
2021/12/10 11:48:45;;;;;;;4.43;2.90;;;10.90;68.70;;;;;;5034007;28;20462;-21
2021/12/10 11:51:55;;;;;;;4.35;3.20;;;11.00;67.50;;;;;;5033719;28;20071;-20
2021/12/10 11:54:25;;;;;;;6.80;4.00;;;11.10;67.20;;;;;;5028315;28;20458;-21
2021/12/10 11:57:04;;;;;;;3.92;2.72;;;11.10;65.00;;;;;;5033188;28;20028;-23
2021/12/10 11:59:37;;;;;;;3.90;2.55;;;11.10;65.90;;;;;;5033318;28;20029;-20
2021/12/10 12:02:14;;;;;;;5.13;3.65;;;11.10;67.20;;;;;;5033255;28;20497;-20
2021/12/10 12:04:49;;;;;;;8.20;4.50;;;11.10;66.40;;;;;;5032031;28;20026;-22
2021/12/10 12:07:20;;;;;;;6.13;3.95;;;11.10;65.60;;;;;;5033529;28;20025;-21
2021/12/10 12:09:53;;;;;;;6.10;4.00;;;11.00;66.10;;;;;;5033554;28;20108;-22
2021/12/10 12:12:26;;;;;;;4.65;2.58;;;11.00;65.60;;;;;;5033330;28;20025;-22
2021/12/10 12:14:54;;;;;;;5.95;3.85;;;11.00;66.50;;;;;;5031974;28;20052;-22
2021/12/10 12:17:38;;;;;;;3.47;3.00;;;11.00;66.60;;;;;;5033221;28;20026;-22
2021/12/10 12:20:22;;;;;;;6.15;3.30;;;10.90;66.20;;;;;;5033149;28;20025;-22
2021/12/10 12:25:53;;;;;;;8.00;4.93;;;10.90;65.70;;;;;;5033325;28;20388;-22
2021/12/10 12:28:23;;;;;;;4.63;2.80;;;10.90;65.10;;;;;;5035689;28;20025;-22
2021/12/10 12:31:09;;;;;;;5.97;3.97;;;10.80;66.40;;;;;;5037322;28;20503;-23
2021/12/10 12:34:13;;;;;;;7.93;5.22;;;10.80;64.70;;;;;;5035520;28;20032;-23
2021/12/10 12:36:51;;;;;;;5.97;3.80;;;10.70;64.80;;;;;;5036910;28;20025;-24
2021/12/10 12:39:41;;;;;;;4.07;2.80;;;10.60;64.80;;;;;;5037219;28;20052;-22
2021/12/10 12:42:20;;;;;;;6.15;3.67;;;10.60;66.40;;;;;;5037208;28;20039;-22
2021/12/10 12:44:49;;;;;;;6.45;3.92;;;10.60;66.30;;;;;;5037165;28;20080;-23
2021/12/10 12:47:41;;;;;;;5.38;3.17;;;10.60;66.30;;;;;;5036661;28;20381;-22
2021/12/10 12:50:18;;;;;;;3.67;2.40;;;10.50;66.90;;;;;;5036961;28;20381;-22
2021/12/10 12:52:58;;;;;;;5.68;3.53;;;10.50;67.40;;;;;;5036888;28;20064;-23
2021/12/10 12:55:33;;;;;;;8.05;4.25;;;10.50;67.20;;;;;;5036987;28;20021;-23
2021/12/10 12:58:12;;;;;;;4.97;3.20;;;10.50;66.60;;;;;;5036502;28;20042;-22
2021/12/10 13:00:45;;;;;;;3.72;2.70;;;10.40;67.00;;;;;;5036581;28;20025;-21
2021/12/10 13:03:34;;;;;;;2.70;2.00;;;10.40;66.20;;;;;;5036501;28;20021;-22
2021/12/10 13:06:19;;;;;;;2.97;1.80;;;10.40;67.10;;;;;;5036645;28;20139;-21
2021/12/10 13:08:57;;;;;;;3.00;2.10;;;10.40;66.90;;;;;;5036392;28;20029;-22
2021/12/10 13:11:32;;;;;;;3.15;2.22;;;10.40;67.40;;;;;;5036709;28;20029;-22
2021/12/10 13:14:17;;;;;;;2.47;1.92;;;10.40;66.80;;;;;;5037508;28;20087;-22
2021/12/10 13:16:54;;;;;;;2.50;1.67;;;10.50;67.40;;;;;;5036175;28;20025;-21
2021/12/10 13:19:24;;;;;;;3.88;2.40;;;10.50;67.60;;;;;;5036249;28;20033;-22
2021/12/10 13:22:00;;;;;;;3.22;2.50;;;10.60;67.60;;;;;;5036192;28;20026;-21